Ontario, Ohio
Current Conditions -  °F | °C
As of 1:52 AM on Sunday 21 Dec 2014 (Local Time) from KMFD Reporting Station
Overcast Overcast  
Wind Chill: 28°   Ceiling: 2200
Heat Index: 28°   Visibility: 8mi
Dew Point: 24°   Wind: 3mph
Humidity: 85%   Direction: 240°WSW
Pressure: 30.25"   Gusts: NA
Location:  40.76°N, 82.59°W
Report Text: KMFD 210652Z 24003KT 8SM OVC022 M02/M04 A3025 RMK AO2 SLP261 T10221044
Loading
Personal Weather Stations






























Interactive Weather Map New forecast layout! Learn more

10-Day Weather Forecast

Advertisements
Track Severe Weather on mobile